Foley, Alabama
Current Conditions -  °F | °C
As of 9:55 PM on Wednesday 17 Dec 2014 (Local Time) from KJKA Reporting Station
Clear Clear  
Wind Chill: 42°   Ceiling: Unl
Heat Index: 42°   Visibility: 10mi
Dew Point: 40°   Wind: 0mph
Humidity: 95%   Direction: NA
Pressure: 30.2"   Gusts: NA
Location:  30.41°N, 87.68°W
Report Text: KJKA 180355Z AUTO 00000KT 10SM CLR 05/05 A3020 RMK AO2 T00540047
Loading
Personal Weather Stations






























Interactive Weather Map New forecast layout! Learn more

10-Day Weather Forecast

Advertisements
Track Severe Weather on mobile